Moosup, CT

2:23 PM EST on January 18, 2017 (GMT -0500)
Moosup Fire Department | | Change Station

Elev 246 ft 41.71 °N, 71.88 °W | Updated 8 seconds ago

Overcast
Overcast
39.9 °F
Feels Like 40 °F
N
2.7
Wind Variable Wind from NNW

Today
High -- | Low -- °F
--% Chance of Precip.
Yesterday
High -- | Low -- °F
Precip. -- in
Pressure 29.94 in
Visibility 10.0 miles
Clouds Overcast 900 ft
Windchill 40 °F
Dew Point 37 °F
Humidity 90%
Rainfall 0.09 in
Snow Depth Not available.
7:10 AM 4:45 PM
Waning Gibbous, 61% visible
METAR KIJD 181852Z AUTO 01005KT 10SM OVC009 04/03 A2994 RMK AO2 SLP139 T00440028
Pressure 29.94 in
Visibility 10.0 miles
Clouds Overcast 900 ft
Windchill 40 °F
Dew Point 37 °F
Humidity 90%
Rainfall 0.09 in
Snow Depth Not available.
7:10 AM 4:45 PM
Waning Gibbous, 61% visible
METAR KIJD 181852Z AUTO 01005KT 10SM OVC009 04/03 A2994 RMK AO2 SLP139 T00440028

Get Your Daily Forecast Email!

Thanks for signing up!

Be on the lookout for a verification email in your inbox.

You'll start receiving the daily forecast at 8 AM.

×

10-Day Weather Forecast

Almanac

Astronomy

Jan. 18, 2017 Rise Set
Actual Time
Civil Twilight
Nautical Twilight
Astronomical Twilight
Moon
Length of Visible Light
Length of Day
Tomorrow will be .
, % of the Moon is Illuminated

Today's Extremes

State Highs State Lows

Community

WunderPhotos

Upload Photos

1,962,540 photos uploaded!

WunderBlog® & News

Nearby

Air Quality

  Air Quality AQ Index Pollutant
Not available.

Snow Depth

Station Depth Elevation

Earthquake Activity

City Distance Mag. Time & Date
Minimum magnitude displayed is 2.5.

Coastal Water Temperatures

Place Temperature

Stations

Nearby Weather Stations

Station Location Temp. Windchill Dew Point Humidity Wind Precip. Elev Updated Type
                   

Watches & Warnings

There are currently no watches in effect.